Van Deusenville, New York
Current Conditions -  °F | °C
As of 1:35 AM on Saturday 25 Oct 2014 (Local Time) from KNY0 Reporting Station
Clear Clear  
Wind Chill: 35°   Ceiling: Unl
Heat Index: 42°   Visibility: 10mi
Dew Point: 40°   Wind: 12mph
Humidity: 93%   Direction: 260°W
Pressure: 29.85"   Gusts: NA
Location:  42.8548°N, 74.5942°W
Report Text: KNY0 250535Z AUTO 26010KT 10SM CLR 06/05 A2985 RMK AO2 T00550045
Loading
Personal Weather Stations






























Interactive Weather Map
Tropical Storm Tracking
New forecast layout! Learn more

10-Day Weather Forecast

Advertisements
Track Severe Weather on mobile